createdAt,value
2023-11-25T00:02:06.532Z,14.18
2023-11-25T00:04:39.906Z,11.93
2023-11-25T00:07:12.347Z,9.75
2023-11-25T00:09:44.935Z,13.68
2023-11-25T00:12:17.872Z,8.98
2023-11-25T00:14:50.795Z,12.30
2023-11-25T00:17:24.897Z,10.23
2023-11-25T00:20:00.596Z,8.13
2023-11-25T00:22:33.436Z,11.05
2023-11-25T00:25:07.216Z,10.58
2023-11-25T00:27:39.829Z,12.50
2023-11-25T00:30:13.386Z,11.05
2023-11-25T00:32:46.179Z,13.63
2023-11-25T00:35:19.569Z,9.53
2023-11-25T00:37:51.981Z,12.50
2023-11-25T00:40:26.373Z,13.88
2023-11-25T00:42:58.944Z,10.90
2023-11-25T00:45:31.677Z,12.43
2023-11-25T00:48:04.527Z,9.63
2023-11-25T00:50:37.382Z,10.03
2023-11-25T00:53:10.070Z,12.90
2023-11-25T00:55:42.760Z,9.03
2023-11-25T00:58:15.176Z,9.53
2023-11-25T01:00:48.112Z,8.40
2023-11-25T01:03:20.818Z,8.00
2023-11-25T01:05:54.556Z,8.30
2023-11-25T01:08:30.481Z,8.85
2023-11-25T01:11:03.364Z,6.33
2023-11-25T01:13:36.118Z,8.38
2023-11-25T01:16:17.801Z,6.42
2023-11-25T01:18:50.179Z,11.12
2023-11-25T01:21:22.923Z,7.90
2023-11-25T01:23:55.447Z,9.98
2023-11-25T01:26:27.789Z,10.88
2023-11-25T01:29:00.198Z,8.70
2023-11-25T01:31:33.377Z,12.25
2023-11-25T01:34:06.151Z,9.80
2023-11-25T01:36:39.114Z,10.63
2023-11-25T01:39:11.793Z,7.53
2023-11-25T01:41:48.285Z,10.50
2023-11-25T01:44:21.001Z,11.35
2023-11-25T01:46:54.019Z,9.65
2023-11-25T01:49:27.141Z,8.90
2023-11-25T01:52:01.093Z,10.23
2023-11-25T01:54:33.968Z,8.60
2023-11-25T01:57:06.677Z,7.83
2023-11-25T01:59:39.138Z,10.03
2023-11-25T02:02:12.675Z,9.13
2023-11-25T02:04:45.528Z,11.03
2023-11-25T02:07:18.155Z,13.05
2023-11-25T02:09:50.735Z,9.13
2023-11-25T02:12:23.387Z,9.83
2023-11-25T02:14:55.749Z,8.53
2023-11-25T02:17:28.745Z,9.88
2023-11-25T02:20:03.757Z,9.30
2023-11-25T02:25:10.367Z,8.78
2023-11-25T02:27:43.291Z,9.73
2023-11-25T02:30:15.945Z,7.85
2023-11-25T02:32:48.398Z,8.58
2023-11-25T02:35:22.228Z,7.80
2023-11-25T02:37:55.167Z,10.98
2023-11-25T02:40:27.845Z,9.98
2023-11-25T02:43:00.453Z,10.85
2023-11-25T02:45:33.527Z,7.70
2023-11-25T02:48:07.387Z,6.85
2023-11-25T02:50:40.262Z,7.43
2023-11-25T02:53:13.038Z,8.58
2023-11-25T02:55:46.156Z,8.53
2023-11-25T02:58:18.653Z,8.15
2023-11-25T03:00:53.101Z,8.18
2023-11-25T03:03:25.993Z,8.38
2023-11-25T03:06:00.731Z,8.70
2023-11-25T03:08:35.329Z,8.43
2023-11-25T03:11:10.024Z,8.83
2023-11-25T03:16:17.398Z,8.90
2023-11-25T03:21:22.290Z,10.95
2023-11-25T03:23:54.680Z,5.97
2023-11-25T03:26:27.591Z,5.75
2023-11-25T03:29:00.214Z,9.13
2023-11-25T03:31:34.789Z,9.95
2023-11-25T03:34:07.249Z,8.40
2023-11-25T03:36:39.918Z,5.35
2023-11-25T03:39:14.129Z,5.47
2023-11-25T03:44:18.725Z,4.53
2023-11-25T03:46:51.338Z,4.75
2023-11-25T03:49:24.584Z,7.47
2023-11-25T03:51:57.595Z,6.90
2023-11-25T03:54:29.992Z,4.70
2023-11-25T03:57:02.458Z,5.17
2023-11-25T03:59:35.299Z,7.12
2023-11-25T04:02:08.458Z,5.22
2023-11-25T04:04:41.389Z,5.10
2023-11-25T04:07:14.413Z,9.38
2023-11-25T04:09:47.056Z,6.10
2023-11-25T04:12:19.394Z,6.33
2023-11-25T04:14:52.127Z,5.60
2023-11-25T04:17:24.784Z,8.35
2023-11-25T04:19:58.505Z,5.28
2023-11-25T04:22:31.317Z,6.42
2023-11-25T04:25:04.506Z,8.58
2023-11-25T04:27:37.286Z,9.90
2023-11-25T04:30:11.710Z,8.38
2023-11-25T04:32:45.287Z,9.98
2023-11-25T04:35:18.558Z,16.05
2023-11-25T04:37:52.155Z,9.00
2023-11-25T04:40:25.524Z,9.18
2023-11-25T04:42:57.854Z,13.05
2023-11-25T04:45:30.709Z,9.30
2023-11-25T04:48:03.428Z,9.20
2023-11-25T04:50:36.035Z,10.40
2023-11-25T04:53:11.175Z,10.30
2023-11-25T04:55:43.759Z,12.73
2023-11-25T04:58:16.882Z,15.00
2023-11-25T05:00:49.685Z,10.78
2023-11-25T05:03:24.417Z,11.20
2023-11-25T05:05:57.036Z,13.83
2023-11-25T05:08:29.748Z,9.53
2023-11-25T05:11:02.407Z,11.45
2023-11-25T05:13:35.650Z,12.33
2023-11-25T05:16:09.640Z,13.58
2023-11-25T05:18:44.377Z,14.07
2023-11-25T05:21:17.273Z,13.40
2023-11-25T05:23:50.884Z,12.10
2023-11-25T05:26:25.165Z,12.78
2023-11-25T05:28:58.220Z,12.82
2023-11-25T05:31:30.925Z,14.50
2023-11-25T05:34:08.599Z,15.18
2023-11-25T05:36:41.741Z,20.45
2023-11-25T05:39:16.451Z,19.57
2023-11-25T05:41:51.733Z,13.93
2023-11-25T05:44:25.929Z,15.32
2023-11-25T05:46:59.036Z,14.07
2023-11-25T05:49:31.567Z,15.70
2023-11-25T05:52:04.720Z,16.85
2023-11-25T05:54:37.279Z,16.45
2023-11-25T05:57:11.033Z,18.37
2023-11-25T05:59:44.581Z,17.93
2023-11-25T06:02:17.583Z,18.15
2023-11-25T06:04:50.631Z,18.50
2023-11-25T06:07:23.603Z,16.40
2023-11-25T06:09:57.045Z,16.97
2023-11-25T06:12:29.517Z,18.87
2023-11-25T06:15:02.028Z,15.85
2023-11-25T06:17:35.361Z,22.55
2023-11-25T06:20:09.734Z,19.05
2023-11-25T06:25:15.748Z,20.12
2023-11-25T06:27:48.634Z,15.80
2023-11-25T06:30:24.732Z,16.93
2023-11-25T06:32:57.351Z,17.92
2023-11-25T06:35:30.859Z,19.60
2023-11-25T06:38:04.917Z,18.23
2023-11-25T06:43:14.333Z,17.48
2023-11-25T06:48:24.691Z,18.62
2023-11-25T06:51:00.632Z,27.95
2023-11-25T06:53:33.396Z,29.65
2023-11-25T06:56:07.768Z,29.35
2023-11-25T06:58:40.564Z,34.60
2023-11-25T07:01:20.986Z,34.60
2023-11-25T07:03:54.106Z,37.53
2023-11-25T07:06:26.857Z,29.02
2023-11-25T07:09:01.605Z,31.40
2023-11-25T07:11:35.528Z,24.25
2023-11-25T07:14:09.739Z,18.33
2023-11-25T07:16:42.390Z,16.23
2023-11-25T07:19:16.010Z,15.80
2023-11-25T07:21:48.724Z,14.90
2023-11-25T07:24:21.208Z,16.60
2023-11-25T07:26:56.549Z,16.65
2023-11-25T07:29:30.905Z,14.33
2023-11-25T07:32:03.800Z,14.50
2023-11-25T07:34:37.476Z,14.20
2023-11-25T07:37:11.066Z,14.57
2023-11-25T07:39:43.804Z,13.43
2023-11-25T07:42:17.074Z,13.38
2023-11-25T07:44:49.906Z,14.75
2023-11-25T07:47:23.727Z,14.80
2023-11-25T07:49:56.330Z,13.13
2023-11-25T07:52:29.330Z,11.30
2023-11-25T07:55:02.827Z,8.75
2023-11-25T07:57:36.175Z,11.43
2023-11-25T08:00:11.523Z,12.68
2023-11-25T08:02:49.812Z,14.28
2023-11-25T08:05:25.848Z,13.05
2023-11-25T08:07:58.722Z,9.50
2023-11-25T08:10:33.061Z,10.65
2023-11-25T08:13:05.891Z,12.03
2023-11-25T08:15:38.597Z,11.95
2023-11-25T08:18:11.266Z,13.85
2023-11-25T08:20:44.203Z,15.90
2023-11-25T08:23:17.310Z,10.30
2023-11-25T08:25:50.848Z,12.82
2023-11-25T08:28:23.516Z,14.90
2023-11-25T08:30:55.878Z,13.80
2023-11-25T08:33:28.653Z,16.57
2023-11-25T08:36:01.694Z,13.43
2023-11-25T08:38:34.616Z,11.90
2023-11-25T08:41:10.101Z,15.98
2023-11-25T08:43:45.032Z,14.03
2023-11-25T08:46:19.207Z,11.97
2023-11-25T08:48:53.338Z,15.53
2023-11-25T08:51:26.326Z,16.63
2023-11-25T08:53:58.799Z,13.88
2023-11-25T08:56:37.041Z,13.40
2023-11-25T08:59:07.750Z,11.00
2023-11-25T09:01:41.342Z,12.73
2023-11-25T09:04:16.036Z,13.27
2023-11-25T09:06:50.866Z,11.83
2023-11-25T09:09:23.957Z,13.03
2023-11-25T09:11:56.381Z,18.55
2023-11-25T09:14:30.792Z,15.07
2023-11-25T09:17:03.590Z,12.53
2023-11-25T09:19:36.271Z,13.68
2023-11-25T09:22:09.508Z,18.20
2023-11-25T09:24:43.543Z,12.90
2023-11-25T09:27:16.070Z,13.38
2023-11-25T09:29:49.146Z,14.60
2023-11-25T09:32:23.259Z,12.23
2023-11-25T09:34:57.618Z,13.20
2023-11-25T09:37:30.029Z,13.88
2023-11-25T09:40:07.294Z,12.75
2023-11-25T09:42:39.989Z,12.33
2023-11-25T09:45:14.184Z,12.37
2023-11-25T09:47:46.971Z,13.28
2023-11-25T09:50:21.330Z,13.72
2023-11-25T09:52:57.351Z,16.40
2023-11-25T09:55:30.658Z,19.23
2023-11-25T09:58:11.459Z,13.35
2023-11-25T10:00:43.810Z,15.98
2023-11-25T10:03:16.646Z,12.58
2023-11-25T10:05:49.414Z,14.60
2023-11-25T10:08:25.938Z,14.40
2023-11-25T10:11:09.026Z,17.32
2023-11-25T10:13:43.351Z,16.60
2023-11-25T10:16:17.799Z,15.70
2023-11-25T10:18:53.512Z,21.10
2023-11-25T10:21:26.918Z,14.93
2023-11-25T10:24:05.057Z,16.02
2023-11-25T10:26:40.486Z,19.52
2023-11-25T10:29:15.131Z,17.32
2023-11-25T10:34:21.088Z,13.58
2023-11-25T10:39:26.284Z,14.40
2023-11-25T10:41:59.704Z,13.45
2023-11-25T10:44:32.949Z,14.93
2023-11-25T10:47:06.808Z,14.28
2023-11-25T10:49:40.516Z,17.65
2023-11-25T10:52:13.713Z,15.55
2023-11-25T10:54:46.821Z,16.67
2023-11-25T10:57:25.231Z,17.23
2023-11-25T10:59:59.766Z,14.87
2023-11-25T11:02:39.814Z,16.45
2023-11-25T11:05:12.571Z,15.83
2023-11-25T11:07:49.123Z,16.62
2023-11-25T11:10:29.273Z,17.90
2023-11-25T11:13:09.959Z,14.00
2023-11-25T11:15:42.288Z,16.90
2023-11-25T11:18:19.979Z,11.93
2023-11-25T11:20:52.989Z,12.37
2023-11-25T11:23:25.416Z,14.93
2023-11-25T11:26:29.047Z,11.45
2023-11-25T11:29:25.415Z,11.75
2023-11-25T11:32:09.550Z,10.90
2023-11-25T11:34:43.572Z,12.07
2023-11-25T11:37:16.700Z,17.23
2023-11-25T11:39:59.960Z,12.63
2023-11-25T11:42:34.733Z,16.23
2023-11-25T11:45:19.221Z,17.00
2023-11-25T11:47:57.248Z,20.75
2023-11-25T11:50:35.347Z,14.65
2023-11-25T11:53:14.373Z,18.45
2023-11-25T11:55:55.227Z,24.85
2023-11-25T11:58:29.029Z,20.65
2023-11-25T12:01:08.367Z,19.57
2023-11-25T12:03:41.479Z,23.12
2023-11-25T12:06:17.202Z,23.55
2023-11-25T12:08:51.241Z,21.95
2023-11-25T12:11:23.775Z,21.23
2023-11-25T12:13:56.171Z,22.73
2023-11-25T12:16:28.715Z,18.35
2023-11-25T12:19:01.824Z,15.58
2023-11-25T12:21:36.338Z,18.07
2023-11-25T12:24:16.038Z,19.60
2023-11-25T12:26:51.469Z,18.80
2023-11-25T12:29:26.120Z,18.15
2023-11-25T12:31:58.754Z,18.07
2023-11-25T12:34:31.544Z,17.40
2023-11-25T12:37:04.615Z,19.25
2023-11-25T12:39:37.370Z,19.12
2023-11-25T12:42:12.235Z,22.40
2023-11-25T12:44:52.747Z,18.82
2023-11-25T12:47:25.726Z,21.02
2023-11-25T12:50:07.437Z,21.62
2023-11-25T12:52:40.368Z,21.45
2023-11-25T12:55:13.884Z,20.45
2023-11-25T12:57:46.816Z,22.58
2023-11-25T13:00:20.732Z,25.62
2023-11-25T13:02:54.455Z,22.05
2023-11-25T13:05:27.566Z,19.98
2023-11-25T13:08:01.541Z,18.75
2023-11-25T13:10:34.481Z,21.10
2023-11-25T13:13:07.148Z,25.85
2023-11-25T13:15:41.230Z,23.22
2023-11-25T13:18:13.606Z,24.63
2023-11-25T13:20:46.795Z,24.77
2023-11-25T13:23:21.319Z,24.05
2023-11-25T13:28:27.406Z,23.22
2023-11-25T13:30:59.942Z,30.52
2023-11-25T13:33:32.684Z,28.80
2023-11-25T13:36:06.769Z,25.02
2023-11-25T13:38:40.365Z,27.20
2023-11-25T13:41:13.544Z,28.07
2023-11-25T13:43:47.712Z,24.15
2023-11-25T13:46:21.136Z,25.55
2023-11-25T13:48:53.717Z,25.00
2023-11-25T13:51:27.032Z,26.33
2023-11-25T13:53:59.488Z,29.25
2023-11-25T13:56:32.099Z,24.20
2023-11-25T13:59:04.566Z,26.60
2023-11-25T14:01:38.412Z,27.50
2023-11-25T14:04:10.997Z,30.30
2023-11-25T14:06:44.689Z,31.50
2023-11-25T14:09:19.257Z,28.43
2023-11-25T14:11:52.518Z,28.02
2023-11-25T14:14:24.930Z,31.57
2023-11-25T14:17:00.375Z,30.40
2023-11-25T14:19:33.450Z,32.15
2023-11-25T14:22:07.006Z,34.38
2023-11-25T14:24:40.024Z,31.40
2023-11-25T14:27:12.663Z,32.17
2023-11-25T14:29:45.894Z,28.40
2023-11-25T14:32:18.691Z,33.53
2023-11-25T14:34:51.672Z,31.02
2023-11-25T14:37:24.147Z,30.57
2023-11-25T14:40:01.282Z,29.63
2023-11-25T14:42:35.157Z,28.87
2023-11-25T14:45:09.447Z,31.12
2023-11-25T14:47:43.263Z,32.08
2023-11-25T14:50:16.818Z,37.20
2023-11-25T14:52:50.315Z,28.87
2023-11-25T14:55:23.430Z,33.08
2023-11-25T14:57:57.694Z,43.75
2023-11-25T15:00:31.472Z,37.10
2023-11-25T15:03:05.524Z,36.48
2023-11-25T15:05:40.197Z,38.23
2023-11-25T15:08:13.567Z,35.63
2023-11-25T15:10:48.152Z,33.70
2023-11-25T15:13:22.464Z,33.73
2023-11-25T15:15:55.129Z,33.73
2023-11-25T15:18:29.669Z,30.00
2023-11-25T15:21:03.694Z,29.02
2023-11-25T15:23:41.389Z,33.70
2023-11-25T15:26:14.353Z,25.90
2023-11-25T15:28:50.139Z,31.15
2023-11-25T15:31:22.110Z,25.37
2023-11-25T15:33:54.661Z,31.17
2023-11-25T15:36:28.996Z,28.83
2023-11-25T15:39:03.829Z,30.08
2023-11-25T15:41:36.979Z,32.85
2023-11-25T15:44:09.697Z,29.37
2023-11-25T15:46:42.443Z,28.83
2023-11-25T15:49:15.018Z,29.87
2023-11-25T15:51:49.236Z,29.60
2023-11-25T15:54:22.588Z,35.05
2023-11-25T15:56:56.347Z,32.23
2023-11-25T15:59:31.050Z,36.45
2023-11-25T16:02:04.048Z,32.70
2023-11-25T16:04:38.654Z,35.00
2023-11-25T16:07:13.336Z,35.70
2023-11-25T16:09:46.771Z,42.83
2023-11-25T16:12:19.521Z,35.85
2023-11-25T16:14:52.393Z,33.13
2023-11-25T16:17:26.010Z,34.67
2023-11-25T16:19:58.929Z,38.38
2023-11-25T16:22:31.876Z,37.50
2023-11-25T16:25:06.241Z,38.83
2023-11-25T16:27:39.066Z,35.90
2023-11-25T16:30:13.658Z,39.58
2023-11-25T16:32:47.008Z,36.40
2023-11-25T16:35:20.361Z,37.67
2023-11-25T16:37:54.085Z,37.58
2023-11-25T16:40:28.255Z,38.23
2023-11-25T16:43:02.792Z,36.40
2023-11-25T16:45:38.433Z,39.92
2023-11-25T16:48:11.282Z,40.43
2023-11-25T16:50:44.117Z,44.48
2023-11-25T16:53:18.134Z,45.83
2023-11-25T16:55:51.545Z,43.60
2023-11-25T16:58:24.930Z,35.90
2023-11-25T17:00:58.069Z,39.88
2023-11-25T17:03:31.074Z,42.88
2023-11-25T17:06:06.832Z,50.43
2023-11-25T17:08:40.402Z,50.30
2023-11-25T17:11:13.326Z,44.73
2023-11-25T17:13:46.291Z,48.20
2023-11-25T17:16:20.577Z,50.58
2023-11-25T17:18:54.476Z,48.52
2023-11-25T17:21:27.120Z,42.03
2023-11-25T17:24:00.701Z,42.78
2023-11-25T17:26:34.091Z,50.25
2023-11-25T17:29:06.806Z,50.08
2023-11-25T17:31:39.900Z,43.85
2023-11-25T17:34:12.772Z,51.58
2023-11-25T17:39:30.076Z,47.08
2023-11-25T17:42:04.657Z,44.48
2023-11-25T17:44:37.862Z,50.73
2023-11-25T17:47:10.571Z,49.60
2023-11-25T17:49:43.092Z,50.52
2023-11-25T17:54:51.230Z,50.20
2023-11-25T17:57:23.926Z,51.15
2023-11-25T17:59:56.442Z,46.13
2023-11-25T18:02:29.160Z,47.95
2023-11-25T18:05:04.722Z,48.10
2023-11-25T18:07:45.198Z,46.35
2023-11-25T18:10:17.996Z,52.05
2023-11-25T18:12:50.766Z,53.55
2023-11-25T18:15:23.740Z,50.65
2023-11-25T18:17:56.829Z,50.03
2023-11-25T18:20:29.925Z,57.55
2023-11-25T18:23:03.033Z,61.55
2023-11-25T18:25:35.822Z,59.93
2023-11-25T18:28:08.347Z,53.48
2023-11-25T18:30:43.756Z,55.00
2023-11-25T18:33:17.365Z,52.75
2023-11-25T18:35:51.122Z,48.17
2023-11-25T18:38:24.629Z,54.23
2023-11-25T18:40:57.582Z,58.83
2023-11-25T18:43:33.751Z,50.98
2023-11-25T18:46:06.977Z,55.35
2023-11-25T18:48:41.399Z,51.73
2023-11-25T18:51:13.789Z,55.23
2023-11-25T18:53:46.861Z,56.25
2023-11-25T18:56:19.513Z,50.25
2023-11-25T18:58:52.273Z,56.35
2023-11-25T19:01:36.004Z,52.33
2023-11-25T19:04:09.367Z,55.17
2023-11-25T19:06:41.924Z,54.73
2023-11-25T19:09:16.762Z,46.02
2023-11-25T19:11:53.710Z,53.02
2023-11-25T19:14:26.659Z,51.75
2023-11-25T19:17:00.154Z,47.17
2023-11-25T19:19:33.186Z,54.33
2023-11-25T19:22:10.776Z,48.38
2023-11-25T19:24:41.913Z,53.50
2023-11-25T19:27:14.226Z,55.45
2023-11-25T19:29:47.869Z,61.33
2023-11-25T19:32:23.833Z,59.50
2023-11-25T19:35:00.855Z,55.67
2023-11-25T19:37:34.444Z,63.77
2023-11-25T19:40:10.818Z,67.30
2023-11-25T19:42:44.009Z,67.25
2023-11-25T19:45:18.604Z,61.28
2023-11-25T19:47:51.174Z,60.78
2023-11-25T19:50:24.524Z,61.35
2023-11-25T19:52:57.696Z,60.75
2023-11-25T19:55:31.647Z,58.40
2023-11-25T19:58:05.211Z,61.73
2023-11-25T20:00:48.946Z,59.37
2023-11-25T20:03:12.692Z,65.10
2023-11-25T20:05:46.854Z,65.72
2023-11-25T20:08:20.882Z,61.55
2023-11-25T20:10:53.951Z,68.92
2023-11-25T20:13:26.634Z,80.95
2023-11-25T20:15:59.720Z,71.72
2023-11-25T20:18:32.750Z,68.10
2023-11-25T20:21:05.327Z,60.28
2023-11-25T20:23:38.093Z,68.07
2023-11-25T20:26:11.414Z,71.17
2023-11-25T20:28:44.558Z,68.87
2023-11-25T20:31:17.377Z,64.85
2023-11-25T20:33:50.359Z,66.70
2023-11-25T20:36:24.162Z,71.30
2023-11-25T20:38:57.750Z,80.72
2023-11-25T20:41:30.723Z,73.03
2023-11-25T20:44:04.006Z,81.32
2023-11-25T20:46:36.702Z,76.30
2023-11-25T20:49:09.560Z,76.50
2023-11-25T20:51:44.278Z,81.35
2023-11-25T20:56:50.869Z,81.35
2023-11-25T20:59:23.695Z,86.42
2023-11-25T21:01:57.604Z,78.63
2023-11-25T21:04:31.179Z,83.87
2023-11-25T21:07:04.369Z,87.53
2023-11-25T21:09:36.903Z,80.62
2023-11-25T21:12:11.778Z,79.25
2023-11-25T21:14:44.457Z,76.82
2023-11-25T21:17:17.282Z,81.95
2023-11-25T21:19:49.893Z,82.35
2023-11-25T21:22:22.535Z,79.42
2023-11-25T21:24:56.294Z,90.97
2023-11-25T21:27:30.421Z,86.55
2023-11-25T21:30:05.577Z,94.62
2023-11-25T21:32:41.655Z,108.92
2023-11-25T21:35:14.751Z,111.37
2023-11-25T21:37:48.030Z,105.37
2023-11-25T21:40:23.777Z,113.83
2023-11-25T21:42:55.636Z,114.03
2023-11-25T21:45:28.499Z,105.17
2023-11-25T21:48:01.603Z,103.17
2023-11-25T21:50:34.475Z,114.90
2023-11-25T21:53:07.537Z,108.95
2023-11-25T21:55:41.035Z,109.75
2023-11-25T21:58:14.223Z,114.17
2023-11-25T22:00:46.744Z,106.70
2023-11-25T22:03:19.377Z,104.85
2023-11-25T22:05:52.026Z,104.95
2023-11-25T22:08:24.534Z,93.12
2023-11-25T22:11:00.030Z,98.22
2023-11-25T22:13:32.955Z,98.03
2023-11-25T22:16:05.881Z,103.25
2023-11-25T22:18:38.837Z,95.75
2023-11-25T22:21:11.289Z,93.12
2023-11-25T22:23:45.532Z,96.90
2023-11-25T22:26:22.989Z,85.40
2023-11-25T22:28:55.580Z,80.00
2023-11-25T22:31:28.350Z,77.72
2023-11-25T22:34:00.989Z,76.07
2023-11-25T22:36:33.919Z,88.80
2023-11-25T22:39:08.173Z,63.75
2023-11-25T22:41:41.214Z,64.80
2023-11-25T22:44:13.993Z,70.03
2023-11-25T22:46:46.542Z,69.45
2023-11-25T22:49:18.948Z,68.07
2023-11-25T22:51:51.486Z,67.00
2023-11-25T22:54:24.621Z,62.95
2023-11-25T22:56:59.048Z,71.92
2023-11-25T22:59:33.016Z,73.85
2023-11-25T23:02:07.768Z,76.87
2023-11-25T23:04:40.735Z,90.00
2023-11-25T23:07:13.258Z,74.53
2023-11-25T23:09:45.940Z,74.03
2023-11-25T23:12:19.797Z,78.02
2023-11-25T23:14:52.779Z,73.12
2023-11-25T23:17:26.886Z,66.25
2023-11-25T23:19:59.505Z,64.50
2023-11-25T23:22:32.066Z,67.53
2023-11-25T23:25:04.715Z,71.55
2023-11-25T23:27:38.186Z,67.30
2023-11-25T23:30:11.830Z,73.97
2023-11-25T23:32:44.642Z,77.90
2023-11-25T23:35:17.310Z,80.80
2023-11-25T23:37:49.975Z,79.77
2023-11-25T23:40:22.628Z,82.33
2023-11-25T23:42:55.320Z,74.42
2023-11-25T23:45:27.909Z,75.47
2023-11-25T23:48:00.503Z,77.80
2023-11-25T23:50:33.023Z,85.03
2023-11-25T23:53:05.631Z,73.17
2023-11-25T23:55:38.754Z,70.90
2023-11-25T23:58:11.616Z,72.90
